sensor_id;sensor_type;location;lat;lon;timestamp;P1;durP1;ratioP1;P2;durP2;ratioP2
20104;SDS011;10212;42.714;23.310;2022-08-06T00:00:06;9.57;;;7.80;;
20104;SDS011;10212;42.714;23.310;2022-08-06T00:05:08;7.90;;;6.85;;
20104;SDS011;10212;42.714;23.310;2022-08-06T00:10:09;10.88;;;7.70;;
20104;SDS011;10212;42.714;23.310;2022-08-06T00:15:09;10.63;;;7.05;;
20104;SDS011;10212;42.714;23.310;2022-08-06T00:20:14;10.27;;;6.95;;
20104;SDS011;10212;42.714;23.310;2022-08-06T00:25:15;8.68;;;7.38;;
20104;SDS011;10212;42.714;23.310;2022-08-06T00:30:16;8.98;;;6.90;;
20104;SDS011;10212;42.714;23.310;2022-08-06T00:35:16;8.38;;;6.65;;
20104;SDS011;10212;42.714;23.310;2022-08-06T00:40:18;10.45;;;6.82;;
20104;SDS011;10212;42.714;23.310;2022-08-06T00:45:20;10.30;;;7.38;;
20104;SDS011;10212;42.714;23.310;2022-08-06T00:50:21;12.68;;;6.47;;
20104;SDS011;10212;42.714;23.310;2022-08-06T00:55:21;7.90;;;6.63;;
20104;SDS011;10212;42.714;23.310;2022-08-06T01:00:22;10.95;;;6.30;;
20104;SDS011;10212;42.714;23.310;2022-08-06T01:05:22;7.00;;;6.25;;
20104;SDS011;10212;42.714;23.310;2022-08-06T01:10:23;6.43;;;5.82;;
20104;SDS011;10212;42.714;23.310;2022-08-06T01:15:23;9.05;;;6.25;;
20104;SDS011;10212;42.714;23.310;2022-08-06T01:31:01;7.55;;;6.38;;
20104;SDS011;10212;42.714;23.310;2022-08-06T01:36:09;8.82;;;6.28;;
20104;SDS011;10212;42.714;23.310;2022-08-06T01:41:19;7.25;;;6.53;;
20104;SDS011;10212;42.714;23.310;2022-08-06T01:46:42;12.18;;;8.18;;
20104;SDS011;10212;42.714;23.310;2022-08-06T01:51:45;11.73;;;7.88;;
20104;SDS011;10212;42.714;23.310;2022-08-06T01:56:50;10.35;;;8.05;;
20104;SDS011;10212;42.714;23.310;2022-08-06T02:01:53;11.32;;;7.53;;
20104;SDS011;10212;42.714;23.310;2022-08-06T02:06:56;9.65;;;6.70;;
20104;SDS011;10212;42.714;23.310;2022-08-06T02:12:00;8.50;;;6.47;;
20104;SDS011;10212;42.714;23.310;2022-08-06T02:17:04;9.10;;;7.18;;
20104;SDS011;10212;42.714;23.310;2022-08-06T02:22:06;8.13;;;6.40;;
20104;SDS011;10212;42.714;23.310;2022-08-06T02:27:07;8.23;;;6.35;;
20104;SDS011;10212;42.714;23.310;2022-08-06T02:32:14;7.37;;;6.67;;
20104;SDS011;10212;42.714;23.310;2022-08-06T02:37:22;7.30;;;6.43;;
20104;SDS011;10212;42.714;23.310;2022-08-06T02:43:34;11.02;;;6.60;;
20104;SDS011;10212;42.714;23.310;2022-08-06T02:48:42;7.97;;;6.47;;
20104;SDS011;10212;42.714;23.310;2022-08-06T02:54:10;6.97;;;6.28;;
20104;SDS011;10212;42.714;23.310;2022-08-06T03:00:01;8.23;;;6.53;;
20104;SDS011;10212;42.714;23.310;2022-08-06T03:05:17;9.93;;;6.47;;
20104;SDS011;10212;42.714;23.310;2022-08-06T03:15:23;9.23;;;6.97;;
20104;SDS011;10212;42.714;23.310;2022-08-06T03:20:25;9.52;;;6.88;;
20104;SDS011;10212;42.714;23.310;2022-08-06T03:25:28;9.60;;;7.18;;
20104;SDS011;10212;42.714;23.310;2022-08-06T03:30:30;11.40;;;6.95;;
20104;SDS011;10212;42.714;23.310;2022-08-06T03:35:33;9.55;;;7.47;;
20104;SDS011;10212;42.714;23.310;2022-08-06T03:40:35;11.48;;;7.95;;
20104;SDS011;10212;42.714;23.310;2022-08-06T03:45:38;14.82;;;8.43;;
20104;SDS011;10212;42.714;23.310;2022-08-06T03:50:45;11.10;;;8.18;;
20104;SDS011;10212;42.714;23.310;2022-08-06T03:55:49;23.02;;;11.40;;
20104;SDS011;10212;42.714;23.310;2022-08-06T04:00:56;51.23;;;21.87;;
20104;SDS011;10212;42.714;23.310;2022-08-06T04:06:00;43.80;;;18.92;;
20104;SDS011;10212;42.714;23.310;2022-08-06T04:11:02;34.13;;;14.70;;
20104;SDS011;10212;42.714;23.310;2022-08-06T04:16:04;33.40;;;14.05;;
20104;SDS011;10212;42.714;23.310;2022-08-06T04:21:06;30.92;;;13.70;;
20104;SDS011;10212;42.714;23.310;2022-08-06T04:31:12;39.47;;;17.30;;
20104;SDS011;10212;42.714;23.310;2022-08-06T04:36:13;29.85;;;14.95;;
20104;SDS011;10212;42.714;23.310;2022-08-06T04:41:14;37.13;;;14.70;;
20104;SDS011;10212;42.714;23.310;2022-08-06T04:46:15;40.10;;;18.05;;
20104;SDS011;10212;42.714;23.310;2022-08-06T04:51:16;26.80;;;11.27;;
20104;SDS011;10212;42.714;23.310;2022-08-06T04:56:17;21.80;;;11.48;;
20104;SDS011;10212;42.714;23.310;2022-08-06T05:01:18;14.43;;;10.80;;
20104;SDS011;10212;42.714;23.310;2022-08-06T05:11:39;12.93;;;10.27;;
20104;SDS011;10212;42.714;23.310;2022-08-06T05:16:44;11.68;;;8.98;;
20104;SDS011;10212;42.714;23.310;2022-08-06T05:21:46;14.75;;;9.45;;
20104;SDS011;10212;42.714;23.310;2022-08-06T05:26:48;12.73;;;9.60;;
20104;SDS011;10212;42.714;23.310;2022-08-06T05:31:49;15.43;;;9.75;;
20104;SDS011;10212;42.714;23.310;2022-08-06T05:36:50;19.95;;;10.65;;
20104;SDS011;10212;42.714;23.310;2022-08-06T05:41:50;14.50;;;9.50;;
20104;SDS011;10212;42.714;23.310;2022-08-06T05:46:52;15.68;;;9.35;;
20104;SDS011;10212;42.714;23.310;2022-08-06T05:52:04;11.20;;;8.05;;
20104;SDS011;10212;42.714;23.310;2022-08-06T05:57:16;11.82;;;7.85;;
20104;SDS011;10212;42.714;23.310;2022-08-06T06:02:25;9.65;;;7.10;;
20104;SDS011;10212;42.714;23.310;2022-08-06T06:07:28;9.30;;;7.03;;
20104;SDS011;10212;42.714;23.310;2022-08-06T06:12:29;9.85;;;7.22;;
20104;SDS011;10212;42.714;23.310;2022-08-06T06:23:11;9.13;;;6.93;;
20104;SDS011;10212;42.714;23.310;2022-08-06T06:28:24;12.35;;;6.75;;
20104;SDS011;10212;42.714;23.310;2022-08-06T06:40:00;7.87;;;6.60;;
20104;SDS011;10212;42.714;23.310;2022-08-06T06:54:47;7.07;;;6.38;;
20104;SDS011;10212;42.714;23.310;2022-08-06T06:59:52;7.45;;;6.15;;
20104;SDS011;10212;42.714;23.310;2022-08-06T07:04:55;7.70;;;6.43;;
20104;SDS011;10212;42.714;23.310;2022-08-06T07:09:57;10.07;;;6.30;;
20104;SDS011;10212;42.714;23.310;2022-08-06T07:14:59;9.20;;;6.90;;
20104;SDS011;10212;42.714;23.310;2022-08-06T07:20:02;11.10;;;7.35;;
20104;SDS011;10212;42.714;23.310;2022-08-06T07:25:08;7.72;;;6.20;;
20104;SDS011;10212;42.714;23.310;2022-08-06T07:30:12;11.98;;;6.80;;
20104;SDS011;10212;42.714;23.310;2022-08-06T07:35:15;7.50;;;6.30;;
20104;SDS011;10212;42.714;23.310;2022-08-06T07:40:40;10.70;;;6.47;;
20104;SDS011;10212;42.714;23.310;2022-08-06T07:45:38;8.63;;;6.45;;
20104;SDS011;10212;42.714;23.310;2022-08-06T07:50:41;10.52;;;5.97;;
20104;SDS011;10212;42.714;23.310;2022-08-06T07:55:44;8.95;;;6.47;;
20104;SDS011;10212;42.714;23.310;2022-08-06T08:00:45;10.90;;;6.85;;
20104;SDS011;10212;42.714;23.310;2022-08-06T08:05:48;7.60;;;5.95;;
20104;SDS011;10212;42.714;23.310;2022-08-06T08:11:07;6.90;;;6.20;;
20104;SDS011;10212;42.714;23.310;2022-08-06T08:16:10;7.93;;;6.18;;
20104;SDS011;10212;42.714;23.310;2022-08-06T08:21:13;7.00;;;6.30;;
20104;SDS011;10212;42.714;23.310;2022-08-06T08:26:14;10.32;;;6.47;;
20104;SDS011;10212;42.714;23.310;2022-08-06T08:31:15;9.27;;;6.20;;
20104;SDS011;10212;42.714;23.310;2022-08-06T08:36:16;8.60;;;5.53;;
20104;SDS011;10212;42.714;23.310;2022-08-06T08:41:19;7.47;;;5.75;;
20104;SDS011;10212;42.714;23.310;2022-08-06T08:46:23;8.73;;;5.50;;
20104;SDS011;10212;42.714;23.310;2022-08-06T08:51:26;8.80;;;5.23;;
20104;SDS011;10212;42.714;23.310;2022-08-06T08:56:27;8.13;;;4.65;;
20104;SDS011;10212;42.714;23.310;2022-08-06T09:01:28;7.13;;;4.43;;
20104;SDS011;10212;42.714;23.310;2022-08-06T09:06:30;5.05;;;4.55;;
20104;SDS011;10212;42.714;23.310;2022-08-06T09:11:33;6.93;;;5.00;;
20104;SDS011;10212;42.714;23.310;2022-08-06T09:16:35;6.28;;;4.07;;
20104;SDS011;10212;42.714;23.310;2022-08-06T09:21:36;5.20;;;4.70;;
20104;SDS011;10212;42.714;23.310;2022-08-06T09:26:37;6.15;;;5.40;;
20104;SDS011;10212;42.714;23.310;2022-08-06T09:31:39;6.60;;;4.13;;
20104;SDS011;10212;42.714;23.310;2022-08-06T09:36:41;6.47;;;3.83;;
20104;SDS011;10212;42.714;23.310;2022-08-06T09:41:46;6.18;;;5.35;;
20104;SDS011;10212;42.714;23.310;2022-08-06T09:46:48;9.75;;;8.07;;
20104;SDS011;10212;42.714;23.310;2022-08-06T09:52:12;7.00;;;4.43;;
20104;SDS011;10212;42.714;23.310;2022-08-06T09:57:13;5.10;;;4.25;;
20104;SDS011;10212;42.714;23.310;2022-08-06T10:02:15;8.88;;;4.43;;
20104;SDS011;10212;42.714;23.310;2022-08-06T10:07:29;8.18;;;4.20;;
20104;SDS011;10212;42.714;23.310;2022-08-06T10:12:33;6.85;;;4.13;;
20104;SDS011;10212;42.714;23.310;2022-08-06T10:17:34;28.33;;;6.60;;
20104;SDS011;10212;42.714;23.310;2022-08-06T10:22:34;6.35;;;4.50;;
20104;SDS011;10212;42.714;23.310;2022-08-06T10:27:35;7.72;;;4.22;;
20104;SDS011;10212;42.714;23.310;2022-08-06T10:32:41;6.25;;;4.38;;
20104;SDS011;10212;42.714;23.310;2022-08-06T10:37:47;4.60;;;4.05;;
20104;SDS011;10212;42.714;23.310;2022-08-06T10:42:52;4.45;;;4.05;;
20104;SDS011;10212;42.714;23.310;2022-08-06T10:47:52;5.45;;;4.22;;
20104;SDS011;10212;42.714;23.310;2022-08-06T10:52:54;7.63;;;6.80;;
20104;SDS011;10212;42.714;23.310;2022-08-06T10:57:55;5.82;;;3.88;;
20104;SDS011;10212;42.714;23.310;2022-08-06T11:02:58;3.92;;;3.63;;
20104;SDS011;10212;42.714;23.310;2022-08-06T11:13:45;8.32;;;6.28;;
20104;SDS011;10212;42.714;23.310;2022-08-06T11:19:08;4.25;;;3.58;;
20104;SDS011;10212;42.714;23.310;2022-08-06T11:24:10;6.68;;;4.25;;
20104;SDS011;10212;42.714;23.310;2022-08-06T11:29:12;5.10;;;4.07;;
20104;SDS011;10212;42.714;23.310;2022-08-06T11:39:17;5.05;;;4.55;;
20104;SDS011;10212;42.714;23.310;2022-08-06T11:44:22;7.10;;;6.50;;
20104;SDS011;10212;42.714;23.310;2022-08-06T11:59:48;5.88;;;4.93;;
20104;SDS011;10212;42.714;23.310;2022-08-06T12:05:03;6.55;;;5.00;;
20104;SDS011;10212;42.714;23.310;2022-08-06T12:10:11;5.07;;;4.60;;
20104;SDS011;10212;42.714;23.310;2022-08-06T12:20:29;5.00;;;4.60;;
20104;SDS011;10212;42.714;23.310;2022-08-06T12:25:32;5.63;;;4.35;;
20104;SDS011;10212;42.714;23.310;2022-08-06T12:40:55;4.82;;;4.38;;
20104;SDS011;10212;42.714;23.310;2022-08-06T12:45:57;7.32;;;4.75;;
20104;SDS011;10212;42.714;23.310;2022-08-06T12:56:09;5.47;;;4.25;;
20104;SDS011;10212;42.714;23.310;2022-08-06T13:01:12;6.87;;;4.07;;
20104;SDS011;10212;42.714;23.310;2022-08-06T13:06:16;4.43;;;3.75;;
20104;SDS011;10212;42.714;23.310;2022-08-06T13:11:19;5.80;;;4.97;;
20104;SDS011;10212;42.714;23.310;2022-08-06T13:16:20;9.73;;;4.25;;
20104;SDS011;10212;42.714;23.310;2022-08-06T13:21:22;4.82;;;4.43;;
20104;SDS011;10212;42.714;23.310;2022-08-06T13:26:28;6.03;;;4.35;;
20104;SDS011;10212;42.714;23.310;2022-08-06T13:31:29;5.53;;;4.55;;
20104;SDS011;10212;42.714;23.310;2022-08-06T13:36:30;6.50;;;4.68;;
20104;SDS011;10212;42.714;23.310;2022-08-06T13:41:31;7.70;;;5.93;;
20104;SDS011;10212;42.714;23.310;2022-08-06T13:46:41;5.00;;;4.50;;
20104;SDS011;10212;42.714;23.310;2022-08-06T13:51:42;4.97;;;4.55;;
20104;SDS011;10212;42.714;23.310;2022-08-06T13:56:43;6.47;;;4.85;;
20104;SDS011;10212;42.714;23.310;2022-08-06T14:01:44;5.10;;;4.40;;
20104;SDS011;10212;42.714;23.310;2022-08-06T14:06:46;4.40;;;4.00;;
20104;SDS011;10212;42.714;23.310;2022-08-06T14:11:54;5.82;;;4.30;;
20104;SDS011;10212;42.714;23.310;2022-08-06T14:16:57;5.45;;;4.63;;
20104;SDS011;10212;42.714;23.310;2022-08-06T14:21:59;5.77;;;4.40;;
20104;SDS011;10212;42.714;23.310;2022-08-06T14:26:59;4.90;;;4.50;;
20104;SDS011;10212;42.714;23.310;2022-08-06T14:32:00;4.97;;;4.32;;
20104;SDS011;10212;42.714;23.310;2022-08-06T14:37:02;6.60;;;4.50;;
20104;SDS011;10212;42.714;23.310;2022-08-06T14:42:02;4.72;;;4.32;;
20104;SDS011;10212;42.714;23.310;2022-08-06T14:47:22;9.05;;;5.13;;
20104;SDS011;10212;42.714;23.310;2022-08-06T14:52:23;6.53;;;5.10;;
20104;SDS011;10212;42.714;23.310;2022-08-06T14:57:24;8.52;;;5.30;;
20104;SDS011;10212;42.714;23.310;2022-08-06T15:02:24;6.03;;;5.53;;
20104;SDS011;10212;42.714;23.310;2022-08-06T15:07:25;6.68;;;5.10;;
20104;SDS011;10212;42.714;23.310;2022-08-06T15:12:26;5.22;;;4.78;;
20104;SDS011;10212;42.714;23.310;2022-08-06T15:17:26;7.00;;;4.95;;
20104;SDS011;10212;42.714;23.310;2022-08-06T15:22:29;5.13;;;4.65;;
20104;SDS011;10212;42.714;23.310;2022-08-06T15:27:29;5.38;;;4.88;;
20104;SDS011;10212;42.714;23.310;2022-08-06T15:32:30;6.28;;;5.00;;
20104;SDS011;10212;42.714;23.310;2022-08-06T15:37:31;5.72;;;4.88;;
20104;SDS011;10212;42.714;23.310;2022-08-06T15:42:31;6.88;;;5.03;;
20104;SDS011;10212;42.714;23.310;2022-08-06T15:47:32;7.20;;;4.97;;
20104;SDS011;10212;42.714;23.310;2022-08-06T15:52:33;7.68;;;5.22;;
20104;SDS011;10212;42.714;23.310;2022-08-06T15:57:34;7.07;;;5.72;;
20104;SDS011;10212;42.714;23.310;2022-08-06T16:02:35;6.18;;;5.57;;
20104;SDS011;10212;42.714;23.310;2022-08-06T16:07:36;6.35;;;5.72;;
20104;SDS011;10212;42.714;23.310;2022-08-06T16:12:36;5.82;;;5.43;;
20104;SDS011;10212;42.714;23.310;2022-08-06T16:17:37;6.25;;;5.30;;
20104;SDS011;10212;42.714;23.310;2022-08-06T16:22:38;7.25;;;5.70;;
20104;SDS011;10212;42.714;23.310;2022-08-06T16:27:38;8.13;;;6.25;;
20104;SDS011;10212;42.714;23.310;2022-08-06T16:32:39;6.00;;;5.43;;
20104;SDS011;10212;42.714;23.310;2022-08-06T16:37:40;5.93;;;5.32;;
20104;SDS011;10212;42.714;23.310;2022-08-06T16:42:41;7.72;;;6.10;;
20104;SDS011;10212;42.714;23.310;2022-08-06T16:47:42;6.68;;;6.07;;
20104;SDS011;10212;42.714;23.310;2022-08-06T16:52:42;6.30;;;5.78;;
20104;SDS011;10212;42.714;23.310;2022-08-06T16:57:43;9.65;;;6.50;;
20104;SDS011;10212;42.714;23.310;2022-08-06T17:02:44;6.93;;;6.28;;
20104;SDS011;10212;42.714;23.310;2022-08-06T17:07:45;23.52;;;17.60;;
20104;SDS011;10212;42.714;23.310;2022-08-06T17:12:47;7.47;;;6.80;;
20104;SDS011;10212;42.714;23.310;2022-08-06T17:17:48;8.15;;;6.50;;
20104;SDS011;10212;42.714;23.310;2022-08-06T17:22:49;15.90;;;13.27;;
20104;SDS011;10212;42.714;23.310;2022-08-06T17:27:50;8.00;;;7.20;;
20104;SDS011;10212;42.714;23.310;2022-08-06T17:32:51;11.52;;;9.27;;
20104;SDS011;10212;42.714;23.310;2022-08-06T17:37:52;9.52;;;7.00;;
20104;SDS011;10212;42.714;23.310;2022-08-06T17:42:53;10.32;;;7.50;;
20104;SDS011;10212;42.714;23.310;2022-08-06T17:47:54;15.60;;;14.00;;
20104;SDS011;10212;42.714;23.310;2022-08-06T17:52:55;15.15;;;12.60;;
20104;SDS011;10212;42.714;23.310;2022-08-06T17:57:57;14.10;;;10.00;;
20104;SDS011;10212;42.714;23.310;2022-08-06T18:02:58;12.25;;;10.27;;
20104;SDS011;10212;42.714;23.310;2022-08-06T18:08:02;11.57;;;10.38;;
20104;SDS011;10212;42.714;23.310;2022-08-06T18:13:02;13.32;;;9.60;;
20104;SDS011;10212;42.714;23.310;2022-08-06T18:18:03;20.85;;;17.83;;
20104;SDS011;10212;42.714;23.310;2022-08-06T18:23:05;20.90;;;16.02;;
20104;SDS011;10212;42.714;23.310;2022-08-06T18:28:08;14.25;;;10.43;;
20104;SDS011;10212;42.714;23.310;2022-08-06T18:33:10;10.90;;;8.90;;
20104;SDS011;10212;42.714;23.310;2022-08-06T18:38:11;8.95;;;8.07;;
20104;SDS011;10212;42.714;23.310;2022-08-06T18:43:12;9.18;;;6.97;;
20104;SDS011;10212;42.714;23.310;2022-08-06T18:48:12;15.80;;;12.10;;
20104;SDS011;10212;42.714;23.310;2022-08-06T18:53:13;9.70;;;8.15;;
20104;SDS011;10212;42.714;23.310;2022-08-06T18:58:14;11.68;;;8.80;;
20104;SDS011;10212;42.714;23.310;2022-08-06T19:03:15;10.60;;;8.13;;
20104;SDS011;10212;42.714;23.310;2022-08-06T19:08:16;10.40;;;7.78;;
20104;SDS011;10212;42.714;23.310;2022-08-06T19:13:17;13.43;;;11.82;;
20104;SDS011;10212;42.714;23.310;2022-08-06T19:18:17;15.27;;;11.43;;
20104;SDS011;10212;42.714;23.310;2022-08-06T19:23:19;10.18;;;7.35;;
20104;SDS011;10212;42.714;23.310;2022-08-06T19:28:20;7.57;;;6.78;;
20104;SDS011;10212;42.714;23.310;2022-08-06T19:33:20;14.00;;;10.50;;
20104;SDS011;10212;42.714;23.310;2022-08-06T19:38:21;21.58;;;14.65;;
20104;SDS011;10212;42.714;23.310;2022-08-06T19:43:22;8.73;;;6.35;;
20104;SDS011;10212;42.714;23.310;2022-08-06T19:48:23;8.63;;;7.25;;
20104;SDS011;10212;42.714;23.310;2022-08-06T19:53:23;9.30;;;7.45;;
20104;SDS011;10212;42.714;23.310;2022-08-06T19:58:24;11.23;;;6.65;;
20104;SDS011;10212;42.714;23.310;2022-08-06T20:03:25;10.40;;;7.13;;
20104;SDS011;10212;42.714;23.310;2022-08-06T20:08:25;10.25;;;6.43;;
20104;SDS011;10212;42.714;23.310;2022-08-06T20:13:26;9.75;;;7.30;;
20104;SDS011;10212;42.714;23.310;2022-08-06T20:18:27;9.32;;;6.80;;
20104;SDS011;10212;42.714;23.310;2022-08-06T20:23:29;11.25;;;8.20;;
20104;SDS011;10212;42.714;23.310;2022-08-06T20:28:30;10.30;;;6.80;;
20104;SDS011;10212;42.714;23.310;2022-08-06T20:33:32;9.38;;;7.60;;
20104;SDS011;10212;42.714;23.310;2022-08-06T20:38:32;10.15;;;6.82;;
20104;SDS011;10212;42.714;23.310;2022-08-06T20:43:33;9.93;;;7.00;;
20104;SDS011;10212;42.714;23.310;2022-08-06T20:48:33;6.85;;;6.10;;
20104;SDS011;10212;42.714;23.310;2022-08-06T20:53:34;8.88;;;6.13;;
20104;SDS011;10212;42.714;23.310;2022-08-06T20:58:35;7.22;;;6.03;;
20104;SDS011;10212;42.714;23.310;2022-08-06T21:03:36;8.52;;;5.82;;
20104;SDS011;10212;42.714;23.310;2022-08-06T21:08:37;7.53;;;5.70;;
20104;SDS011;10212;42.714;23.310;2022-08-06T21:13:37;6.65;;;5.95;;
20104;SDS011;10212;42.714;23.310;2022-08-06T21:18:39;10.02;;;6.15;;
20104;SDS011;10212;42.714;23.310;2022-08-06T21:23:39;7.50;;;6.22;;
20104;SDS011;10212;42.714;23.310;2022-08-06T21:28:40;10.63;;;7.00;;
20104;SDS011;10212;42.714;23.310;2022-08-06T21:33:41;9.40;;;6.20;;
20104;SDS011;10212;42.714;23.310;2022-08-06T21:38:41;13.70;;;7.97;;
20104;SDS011;10212;42.714;23.310;2022-08-06T21:43:42;10.43;;;8.07;;
20104;SDS011;10212;42.714;23.310;2022-08-06T21:48:42;11.68;;;8.13;;
20104;SDS011;10212;42.714;23.310;2022-08-06T21:53:43;10.18;;;7.82;;
20104;SDS011;10212;42.714;23.310;2022-08-06T21:58:44;9.48;;;8.00;;
20104;SDS011;10212;42.714;23.310;2022-08-06T22:03:45;9.00;;;8.10;;
20104;SDS011;10212;42.714;23.310;2022-08-06T22:08:46;9.15;;;8.35;;
20104;SDS011;10212;42.714;23.310;2022-08-06T22:13:48;9.38;;;8.20;;
20104;SDS011;10212;42.714;23.310;2022-08-06T22:18:49;10.65;;;8.75;;
20104;SDS011;10212;42.714;23.310;2022-08-06T22:23:50;12.00;;;7.97;;
20104;SDS011;10212;42.714;23.310;2022-08-06T22:28:50;10.98;;;8.88;;
20104;SDS011;10212;42.714;23.310;2022-08-06T22:33:51;10.75;;;8.88;;
20104;SDS011;10212;42.714;23.310;2022-08-06T22:38:51;13.35;;;9.27;;
20104;SDS011;10212;42.714;23.310;2022-08-06T22:43:52;12.20;;;9.15;;
20104;SDS011;10212;42.714;23.310;2022-08-06T22:48:52;12.95;;;8.98;;
20104;SDS011;10212;42.714;23.310;2022-08-06T22:53:53;12.65;;;9.18;;
20104;SDS011;10212;42.714;23.310;2022-08-06T22:58:54;9.60;;;8.52;;
20104;SDS011;10212;42.714;23.310;2022-08-06T23:03:55;10.13;;;8.60;;
20104;SDS011;10212;42.714;23.310;2022-08-06T23:08:57;9.65;;;8.65;;
20104;SDS011;10212;42.714;23.310;2022-08-06T23:13:57;10.75;;;8.50;;
20104;SDS011;10212;42.714;23.310;2022-08-06T23:18:58;12.25;;;8.63;;
20104;SDS011;10212;42.714;23.310;2022-08-06T23:24:02;10.73;;;8.73;;
20104;SDS011;10212;42.714;23.310;2022-08-06T23:29:04;11.90;;;9.38;;
20104;SDS011;10212;42.714;23.310;2022-08-06T23:34:06;11.85;;;9.52;;
20104;SDS011;10212;42.714;23.310;2022-08-06T23:39:08;13.77;;;9.52;;
20104;SDS011;10212;42.714;23.310;2022-08-06T23:44:09;16.05;;;9.77;;
20104;SDS011;10212;42.714;23.310;2022-08-06T23:49:09;12.40;;;9.02;;
20104;SDS011;10212;42.714;23.310;2022-08-06T23:54:10;12.80;;;9.38;;
20104;SDS011;10212;42.714;23.310;2022-08-06T23:59:11;12.00;;;9.65;;
